sensor_id;sensor_type;location;lat;lon;timestamp;pressure;altitude;pressure_sealevel;temperature;humidity
51287;BME280;37364;46.974;18.916;2024-02-21T00:00:22;151878.72;;;6.07;100.00
51287;BME280;37364;46.974;18.916;2024-02-21T00:02:52;151889.03;;;6.11;100.00
51287;BME280;37364;46.974;18.916;2024-02-21T00:05:26;151900.69;;;6.16;100.00
51287;BME280;37364;46.974;18.916;2024-02-21T00:07:57;151892.94;;;6.13;100.00
51287;BME280;37364;46.974;18.916;2024-02-21T00:10:30;151881.34;;;6.08;100.00
51287;BME280;37364;46.974;18.916;2024-02-21T00:13:02;151892.94;;;6.13;100.00
51287;BME280;37364;46.974;18.916;2024-02-21T00:15:34;151882.59;;;6.09;100.00
51287;BME280;37364;46.974;18.916;2024-02-21T00:18:04;151883.88;;;6.09;100.00
51287;BME280;37364;46.974;18.916;2024-02-21T00:20:34;151899.41;;;6.16;100.00
51287;BME280;37364;46.974;18.916;2024-02-21T00:23:04;151917.44;;;6.23;100.00
51287;BME280;37364;46.974;18.916;2024-02-21T00:25:37;151913.56;;;6.21;100.00
51287;BME280;37364;46.974;18.916;2024-02-21T00:28:07;151920.06;;;6.24;100.00
51287;BME280;37364;46.974;18.916;2024-02-21T00:30:38;151914.88;;;6.22;100.00
51287;BME280;37364;46.974;18.916;2024-02-21T00:33:09;151921.34;;;6.24;100.00
51287;BME280;37364;46.974;18.916;2024-02-21T00:35:39;151945.84;;;6.34;100.00
51287;BME280;37364;46.974;18.916;2024-02-21T00:38:09;151931.66;;;6.28;100.00
51287;BME280;37364;46.974;18.916;2024-02-21T00:40:41;151963.94;;;6.41;100.00
51287;BME280;37364;46.974;18.916;2024-02-21T00:43:12;151962.63;;;6.41;100.00
51287;BME280;37364;46.974;18.916;2024-02-21T00:45:43;151935.53;;;6.30;100.00
51287;BME280;37364;46.974;18.916;2024-02-21T00:48:13;151929.09;;;6.27;100.00
51287;BME280;37364;46.974;18.916;2024-02-21T00:50:44;151934.25;;;6.29;100.00
51287;BME280;37364;46.974;18.916;2024-02-21T00:53:13;151913.56;;;6.21;100.00
51287;BME280;37364;46.974;18.916;2024-02-21T00:55:46;151912.28;;;6.21;100.00
51287;BME280;37364;46.974;18.916;2024-02-21T00:58:16;151882.59;;;6.09;100.00
51287;BME280;37364;46.974;18.916;2024-02-21T01:00:46;151880.06;;;6.08;100.00
51287;BME280;37364;46.974;18.916;2024-02-21T01:03:16;151860.69;;;6.00;100.00
51287;BME280;37364;46.974;18.916;2024-02-21T01:05:46;151833.53;;;5.89;100.00
51287;BME280;37364;46.974;18.916;2024-02-21T01:08:16;151829.63;;;5.88;100.00
51287;BME280;37364;46.974;18.916;2024-02-21T01:10:49;151819.31;;;5.84;100.00
51287;BME280;37364;46.974;18.916;2024-02-21T01:13:19;151806.44;;;5.79;100.00
51287;BME280;37364;46.974;18.916;2024-02-21T01:15:49;151799.97;;;5.76;100.00
51287;BME280;37364;46.974;18.916;2024-02-21T01:18:21;151784.50;;;5.70;100.00
51287;BME280;37364;46.974;18.916;2024-02-21T01:20:51;151779.34;;;5.68;100.00
51287;BME280;37364;46.974;18.916;2024-02-21T01:23:21;151784.50;;;5.70;100.00
51287;BME280;37364;46.974;18.916;2024-02-21T01:25:53;151756.16;;;5.59;100.00
51287;BME280;37364;46.974;18.916;2024-02-21T01:28:24;151754.81;;;5.58;100.00
51287;BME280;37364;46.974;18.916;2024-02-21T01:30:54;151752.28;;;5.57;100.00
51287;BME280;37364;46.974;18.916;2024-02-21T01:33:25;151754.81;;;5.58;100.00
51287;BME280;37364;46.974;18.916;2024-02-21T01:35:57;151759.97;;;5.60;100.00
51287;BME280;37364;46.974;18.916;2024-02-21T01:38:27;151761.31;;;5.61;100.00
51287;BME280;37364;46.974;18.916;2024-02-21T01:41:01;151738.06;;;5.51;100.00
51287;BME280;37364;46.974;18.916;2024-02-21T01:43:33;151744.50;;;5.54;100.00
51287;BME280;37364;46.974;18.916;2024-02-21T01:46:04;151744.50;;;5.54;100.00
51287;BME280;37364;46.974;18.916;2024-02-21T01:48:34;151752.28;;;5.57;100.00
51287;BME280;37364;46.974;18.916;2024-02-21T01:51:05;151767.75;;;5.63;100.00
51287;BME280;37364;46.974;18.916;2024-02-21T01:53:38;151797.41;;;5.75;100.00
51287;BME280;37364;46.974;18.916;2024-02-21T01:56:12;151789.66;;;5.72;100.00
51287;BME280;37364;46.974;18.916;2024-02-21T01:58:42;151796.13;;;5.74;100.00
51287;BME280;37364;46.974;18.916;2024-02-21T02:01:13;151812.88;;;5.81;100.00
51287;BME280;37364;46.974;18.916;2024-02-21T02:03:48;151823.19;;;5.85;100.00
51287;BME280;37364;46.974;18.916;2024-02-21T02:06:20;151824.47;;;5.86;100.00
51287;BME280;37364;46.974;18.916;2024-02-21T02:08:53;151819.31;;;5.84;100.00
51287;BME280;37364;46.974;18.916;2024-02-21T02:11:26;151833.53;;;5.89;100.00
51287;BME280;37364;46.974;18.916;2024-02-21T02:13:56;151840.00;;;5.92;100.00
51287;BME280;37364;46.974;18.916;2024-02-21T02:16:26;151838.69;;;5.91;100.00
51287;BME280;37364;46.974;18.916;2024-02-21T02:18:57;151823.19;;;5.85;100.00
51287;BME280;37364;46.974;18.916;2024-02-21T02:21:30;151821.94;;;5.85;100.00
51287;BME280;37364;46.974;18.916;2024-02-21T02:24:05;151834.78;;;5.90;100.00
51287;BME280;37364;46.974;18.916;2024-02-21T02:26:36;151811.59;;;5.81;100.00
51287;BME280;37364;46.974;18.916;2024-02-21T02:29:06;151805.13;;;5.78;100.00
51287;BME280;37364;46.974;18.916;2024-02-21T02:31:36;151814.16;;;5.82;100.00
51287;BME280;37364;46.974;18.916;2024-02-21T02:34:06;151802.56;;;5.77;100.00
51287;BME280;37364;46.974;18.916;2024-02-21T02:36:37;151807.72;;;5.79;100.00
51287;BME280;37364;46.974;18.916;2024-02-21T02:39:10;151820.66;;;5.84;100.00
51287;BME280;37364;46.974;18.916;2024-02-21T02:41:41;151811.59;;;5.81;100.00
51287;BME280;37364;46.974;18.916;2024-02-21T02:44:11;151825.81;;;5.86;100.00
51287;BME280;37364;46.974;18.916;2024-02-21T02:46:43;151820.66;;;5.84;100.00
51287;BME280;37364;46.974;18.916;2024-02-21T02:49:13;151825.81;;;5.86;100.00
51287;BME280;37364;46.974;18.916;2024-02-21T02:51:43;151812.88;;;5.81;100.00
51287;BME280;37364;46.974;18.916;2024-02-21T02:54:17;151794.81;;;5.74;100.00
51287;BME280;37364;46.974;18.916;2024-02-21T02:56:47;151809.00;;;5.80;100.00
51287;BME280;37364;46.974;18.916;2024-02-21T03:02:06;151810.34;;;5.80;100.00
51287;BME280;37364;46.974;18.916;2024-02-21T03:04:39;151819.31;;;5.84;100.00
51287;BME280;37364;46.974;18.916;2024-02-21T03:09:45;151827.09;;;5.87;100.00
51287;BME280;37364;46.974;18.916;2024-02-21T03:12:15;151821.94;;;5.85;100.00
51287;BME280;37364;46.974;18.916;2024-02-21T03:14:51;151837.41;;;5.91;100.00
51287;BME280;37364;46.974;18.916;2024-02-21T03:17:21;151807.72;;;5.79;100.00
51287;BME280;37364;46.974;18.916;2024-02-21T03:19:51;151799.97;;;5.76;100.00
51287;BME280;37364;46.974;18.916;2024-02-21T03:22:22;151794.81;;;5.74;100.00
51287;BME280;37364;46.974;18.916;2024-02-21T03:24:55;151815.50;;;5.82;100.00
51287;BME280;37364;46.974;18.916;2024-02-21T03:27:25;151812.88;;;5.81;100.00
51287;BME280;37364;46.974;18.916;2024-02-21T03:29:55;151776.78;;;5.67;100.00
51287;BME280;37364;46.974;18.916;2024-02-21T03:32:25;151750.94;;;5.57;100.00
51287;BME280;37364;46.974;18.916;2024-02-21T03:34:56;151759.97;;;5.60;100.00
51287;BME280;37364;46.974;18.916;2024-02-21T03:37:26;151747.09;;;5.55;100.00
51287;BME280;37364;46.974;18.916;2024-02-21T03:39:59;151749.66;;;5.56;100.00
51287;BME280;37364;46.974;18.916;2024-02-21T03:42:29;151765.13;;;5.62;100.00
51287;BME280;37364;46.974;18.916;2024-02-21T03:44:59;151761.31;;;5.61;100.00
51287;BME280;37364;46.974;18.916;2024-02-21T03:47:30;151745.78;;;5.54;100.00
51287;BME280;37364;46.974;18.916;2024-02-21T03:50:00;151747.09;;;5.55;100.00
51287;BME280;37364;46.974;18.916;2024-02-21T03:52:31;151736.78;;;5.51;100.00
51287;BME280;37364;46.974;18.916;2024-02-21T03:55:05;151738.06;;;5.51;100.00
51287;BME280;37364;46.974;18.916;2024-02-21T03:57:35;151761.31;;;5.61;100.00
51287;BME280;37364;46.974;18.916;2024-02-21T04:00:06;151766.47;;;5.63;100.00
51287;BME280;37364;46.974;18.916;2024-02-21T04:02:39;151776.78;;;5.67;100.00
51287;BME280;37364;46.974;18.916;2024-02-21T04:05:10;151771.63;;;5.65;100.00
51287;BME280;37364;46.974;18.916;2024-02-21T04:07:40;151763.84;;;5.62;100.00
51287;BME280;37364;46.974;18.916;2024-02-21T04:10:13;151756.16;;;5.59;100.00
51287;BME280;37364;46.974;18.916;2024-02-21T04:12:43;151758.69;;;5.60;100.00
51287;BME280;37364;46.974;18.916;2024-02-21T04:15:13;151767.75;;;5.63;100.00
51287;BME280;37364;46.974;18.916;2024-02-21T04:17:43;151758.69;;;5.60;100.00
51287;BME280;37364;46.974;18.916;2024-02-21T04:20:15;151769.00;;;5.64;100.00
51287;BME280;37364;46.974;18.916;2024-02-21T04:22:46;151778.06;;;5.67;100.00
51287;BME280;37364;46.974;18.916;2024-02-21T04:25:18;151774.19;;;5.66;100.00
51287;BME280;37364;46.974;18.916;2024-02-21T04:27:49;151752.28;;;5.57;100.00
51287;BME280;37364;46.974;18.916;2024-02-21T04:30:19;151779.34;;;5.68;100.00
51287;BME280;37364;46.974;18.916;2024-02-21T04:32:49;151769.00;;;5.64;100.00
51287;BME280;37364;46.974;18.916;2024-02-21T04:35:19;151781.94;;;5.69;100.00
51287;BME280;37364;46.974;18.916;2024-02-21T04:37:49;151778.06;;;5.67;100.00
51287;BME280;37364;46.974;18.916;2024-02-21T04:40:22;151801.28;;;5.77;100.00
51287;BME280;37364;46.974;18.916;2024-02-21T04:42:52;151792.25;;;5.73;100.00
51287;BME280;37364;46.974;18.916;2024-02-21T04:45:22;151802.56;;;5.77;100.00
51287;BME280;37364;46.974;18.916;2024-02-21T04:47:52;151809.00;;;5.80;100.00
51287;BME280;37364;46.974;18.916;2024-02-21T04:50:22;151810.34;;;5.80;100.00
51287;BME280;37364;46.974;18.916;2024-02-21T04:52:52;151794.81;;;5.74;100.00
51287;BME280;37364;46.974;18.916;2024-02-21T04:55:25;151796.13;;;5.74;100.00
51287;BME280;37364;46.974;18.916;2024-02-21T04:57:55;151783.22;;;5.69;100.00
51287;BME280;37364;46.974;18.916;2024-02-21T05:00:25;151796.13;;;5.74;100.00
51287;BME280;37364;46.974;18.916;2024-02-21T05:02:55;151784.50;;;5.70;100.00
51287;BME280;37364;46.974;18.916;2024-02-21T05:05:25;151797.41;;;5.75;100.00
51287;BME280;37364;46.974;18.916;2024-02-21T05:07:56;151794.81;;;5.74;100.00
51287;BME280;37364;46.974;18.916;2024-02-21T05:10:29;151792.25;;;5.73;100.00
51287;BME280;37364;46.974;18.916;2024-02-21T05:12:59;151775.44;;;5.66;100.00
51287;BME280;37364;46.974;18.916;2024-02-21T05:15:29;151772.91;;;5.65;100.00
51287;BME280;37364;46.974;18.916;2024-02-21T05:18:01;151765.13;;;5.62;100.00
51287;BME280;37364;46.974;18.916;2024-02-21T05:20:31;151780.59;;;5.68;100.00
51287;BME280;37364;46.974;18.916;2024-02-21T05:23:01;151756.16;;;5.59;100.00
51287;BME280;37364;46.974;18.916;2024-02-21T05:25:34;151740.63;;;5.52;100.00
51287;BME280;37364;46.974;18.916;2024-02-21T05:28:04;151741.94;;;5.53;100.00
51287;BME280;37364;46.974;18.916;2024-02-21T05:30:35;151735.47;;;5.50;100.00
51287;BME280;37364;46.974;18.916;2024-02-21T05:33:07;151729.03;;;5.48;100.00
51287;BME280;37364;46.974;18.916;2024-02-21T05:35:39;151734.19;;;5.50;100.00
51287;BME280;37364;46.974;18.916;2024-02-21T05:38:09;151736.78;;;5.51;100.00
51287;BME280;37364;46.974;18.916;2024-02-21T05:40:42;151734.19;;;5.50;100.00
51287;BME280;37364;46.974;18.916;2024-02-21T05:43:12;151726.44;;;5.47;100.00
51287;BME280;37364;46.974;18.916;2024-02-21T05:45:42;151692.94;;;5.33;100.00
51287;BME280;37364;46.974;18.916;2024-02-21T05:48:15;151683.91;;;5.30;100.00
51287;BME280;37364;46.974;18.916;2024-02-21T05:50:45;151689.06;;;5.32;100.00
51287;BME280;37364;46.974;18.916;2024-02-21T05:53:15;151698.09;;;5.35;100.00
51287;BME280;37364;46.974;18.916;2024-02-21T05:55:52;151707.13;;;5.39;100.00
51287;BME280;37364;46.974;18.916;2024-02-21T05:58:22;151727.75;;;5.47;100.00
51287;BME280;37364;46.974;18.916;2024-02-21T06:00:53;151736.78;;;5.51;100.00
51287;BME280;37364;46.974;18.916;2024-02-21T06:03:24;151727.75;;;5.47;100.00
51287;BME280;37364;46.974;18.916;2024-02-21T06:05:54;151744.50;;;5.54;100.00
51287;BME280;37364;46.974;18.916;2024-02-21T06:08:29;151739.34;;;5.52;100.00
51287;BME280;37364;46.974;18.916;2024-02-21T06:11:02;151744.50;;;5.54;100.00
51287;BME280;37364;46.974;18.916;2024-02-21T06:13:32;151747.09;;;5.55;100.00
51287;BME280;37364;46.974;18.916;2024-02-21T06:16:02;151754.81;;;5.58;100.00
51287;BME280;37364;46.974;18.916;2024-02-21T06:18:32;151752.28;;;5.57;100.00
51287;BME280;37364;46.974;18.916;2024-02-21T06:21:06;151748.38;;;5.55;100.00
51287;BME280;37364;46.974;18.916;2024-02-21T06:23:37;151787.09;;;5.71;100.00
51287;BME280;37364;46.974;18.916;2024-02-21T06:26:12;151807.72;;;5.79;100.00
51287;BME280;37364;46.974;18.916;2024-02-21T06:28:46;151814.16;;;5.82;100.00
51287;BME280;37364;46.974;18.916;2024-02-21T06:31:20;151796.13;;;5.74;100.00
51287;BME280;37364;46.974;18.916;2024-02-21T06:33:50;151812.88;;;5.81;100.00
51287;BME280;37364;46.974;18.916;2024-02-21T06:36:23;151825.81;;;5.86;100.00
51287;BME280;37364;46.974;18.916;2024-02-21T06:38:54;151821.94;;;5.85;100.00
51287;BME280;37364;46.974;18.916;2024-02-21T06:41:38;151833.53;;;5.89;100.00
51287;BME280;37364;46.974;18.916;2024-02-21T06:44:08;151819.31;;;5.84;100.00
51287;BME280;37364;46.974;18.916;2024-02-21T06:46:40;151836.13;;;5.90;100.00
51287;BME280;37364;46.974;18.916;2024-02-21T06:49:10;151846.44;;;5.94;100.00
51287;BME280;37364;46.974;18.916;2024-02-21T06:51:43;151852.94;;;5.97;100.00
51287;BME280;37364;46.974;18.916;2024-02-21T06:54:13;151871.00;;;6.04;100.00
51287;BME280;37364;46.974;18.916;2024-02-21T06:56:46;151890.38;;;6.12;100.00
51287;BME280;37364;46.974;18.916;2024-02-21T06:59:16;151883.88;;;6.09;100.00
51287;BME280;37364;46.974;18.916;2024-02-21T07:01:46;151905.84;;;6.18;100.00
51287;BME280;37364;46.974;18.916;2024-02-21T07:04:17;151918.72;;;6.23;100.00
51287;BME280;37364;46.974;18.916;2024-02-21T07:06:48;151962.63;;;6.41;100.00
51287;BME280;37364;46.974;18.916;2024-02-21T07:09:19;152007.84;;;6.59;100.00
51287;BME280;37364;46.974;18.916;2024-02-21T07:11:52;152053.00;;;6.77;100.00
51287;BME280;37364;46.974;18.916;2024-02-21T07:14:22;152071.06;;;6.84;100.00
51287;BME280;37364;46.974;18.916;2024-02-21T07:16:52;152109.81;;;6.99;100.00
51287;BME280;37364;46.974;18.916;2024-02-21T07:19:29;152122.72;;;7.04;100.00
51287;BME280;37364;46.974;18.916;2024-02-21T07:22:00;152158.88;;;7.19;100.00
51287;BME280;37364;46.974;18.916;2024-02-21T07:24:32;152174.38;;;7.25;100.00
51287;BME280;37364;46.974;18.916;2024-02-21T07:27:05;152220.91;;;7.43;100.00
51287;BME280;37364;46.974;18.916;2024-02-21T07:29:36;152233.78;;;7.48;100.00
51287;BME280;37364;46.974;18.916;2024-02-21T07:32:10;152250.63;;;7.55;100.00
51287;BME280;37364;46.974;18.916;2024-02-21T07:34:40;152264.84;;;7.61;100.00
51287;BME280;37364;46.974;18.916;2024-02-21T07:37:11;152288.06;;;7.70;100.00
51287;BME280;37364;46.974;18.916;2024-02-21T07:39:42;152298.38;;;7.74;100.00
51287;BME280;37364;46.974;18.916;2024-02-21T07:42:15;152293.22;;;7.72;100.00
51287;BME280;37364;46.974;18.916;2024-02-21T07:44:45;152286.78;;;7.69;100.00
51287;BME280;37364;46.974;18.916;2024-02-21T07:47:16;152279.03;;;7.66;100.00
51287;BME280;37364;46.974;18.916;2024-02-21T07:49:49;152277.72;;;7.66;100.00
51287;BME280;37364;46.974;18.916;2024-02-21T07:52:21;152257.06;;;7.58;100.00
51287;BME280;37364;46.974;18.916;2024-02-21T07:54:52;152249.28;;;7.55;100.00
51287;BME280;37364;46.974;18.916;2024-02-21T07:57:29;152205.41;;;7.37;100.00
51287;BME280;37364;46.974;18.916;2024-02-21T08:00:03;152195.03;;;7.33;100.00
51287;BME280;37364;46.974;18.916;2024-02-21T08:02:42;152196.34;;;7.33;100.00
51287;BME280;37364;46.974;18.916;2024-02-21T08:05:12;152213.13;;;7.40;100.00
51287;BME280;37364;46.974;18.916;2024-02-21T08:07:43;152244.13;;;7.52;100.00
51287;BME280;37364;46.974;18.916;2024-02-21T08:10:18;152304.88;;;7.77;100.00
51287;BME280;37364;46.974;18.916;2024-02-21T08:12:51;152310.03;;;7.79;100.00
51287;BME280;37364;46.974;18.916;2024-02-21T08:15:22;152324.25;;;7.84;100.00
51287;BME280;37364;46.974;18.916;2024-02-21T08:17:57;152351.38;;;7.95;100.00
51287;BME280;37364;46.974;18.916;2024-02-21T08:20:31;152413.44;;;8.20;100.00
51287;BME280;37364;46.974;18.916;2024-02-21T08:23:05;152423.75;;;8.24;100.00
51287;BME280;37364;46.974;18.916;2024-02-21T08:25:36;152421.16;;;8.23;100.00
51287;BME280;37364;46.974;18.916;2024-02-21T08:28:13;152396.59;;;8.13;100.00
51287;BME280;37364;46.974;18.916;2024-02-21T08:30:45;152444.44;;;8.32;100.00
51287;BME280;37364;46.974;18.916;2024-02-21T08:33:16;152528.50;;;8.65;100.00
51287;BME280;37364;46.974;18.916;2024-02-21T08:35:50;152610.00;;;8.98;100.00
51287;BME280;37364;46.974;18.916;2024-02-21T08:38:23;152664.31;;;9.19;100.00
51287;BME280;37364;46.974;18.916;2024-02-21T08:40:54;152611.28;;;8.98;100.00
51287;BME280;37364;46.974;18.916;2024-02-21T08:43:28;152624.19;;;9.03;100.00
51287;BME280;37364;46.974;18.916;2024-02-21T08:46:05;152551.81;;;8.75;100.00
51287;BME280;37364;46.974;18.916;2024-02-21T08:48:39;152559.53;;;8.78;100.00
51287;BME280;37364;46.974;18.916;2024-02-21T08:51:09;152602.22;;;8.95;100.00
51287;BME280;37364;46.974;18.916;2024-02-21T08:53:40;152577.66;;;8.85;100.00
51287;BME280;37364;46.974;18.916;2024-02-21T08:56:14;152611.28;;;8.98;100.00
51287;BME280;37364;46.974;18.916;2024-02-21T08:58:48;152595.78;;;8.92;100.00
51287;BME280;37364;46.974;18.916;2024-02-21T09:01:19;152588.00;;;8.89;100.00
51287;BME280;37364;46.974;18.916;2024-02-21T09:03:52;152534.97;;;8.68;100.00
51287;BME280;37364;46.974;18.916;2024-02-21T09:06:25;152529.78;;;8.66;100.00
51287;BME280;37364;46.974;18.916;2024-02-21T09:08:57;152549.19;;;8.74;100.00
51287;BME280;37364;46.974;18.916;2024-02-21T09:11:30;152588.00;;;8.89;100.00
51287;BME280;37364;46.974;18.916;2024-02-21T09:14:04;152590.59;;;8.90;100.00
51287;BME280;37364;46.974;18.916;2024-02-21T09:16:38;152608.69;;;8.97;100.00
51287;BME280;37364;46.974;18.916;2024-02-21T09:19:10;152582.81;;;8.87;100.00
51287;BME280;37364;46.974;18.916;2024-02-21T09:21:41;152613.84;;;8.99;100.00
51287;BME280;37364;46.974;18.916;2024-02-21T09:24:14;152607.41;;;8.97;100.00
51287;BME280;37364;46.974;18.916;2024-02-21T09:26:49;152595.78;;;8.92;100.00
51287;BME280;37364;46.974;18.916;2024-02-21T09:29:26;152639.75;;;9.09;100.00
51287;BME280;37364;46.974;18.916;2024-02-21T09:32:03;152606.13;;;8.96;100.00
51287;BME280;37364;46.974;18.916;2024-02-21T09:34:34;152691.47;;;9.30;100.00
51287;BME280;37364;46.974;18.916;2024-02-21T09:37:07;152696.63;;;9.32;100.00
51287;BME280;37364;46.974;18.916;2024-02-21T09:39:41;152683.69;;;9.27;100.00
51287;BME280;37364;46.974;18.916;2024-02-21T09:42:19;152643.59;;;9.11;100.00
51287;BME280;37364;46.974;18.916;2024-02-21T09:44:57;152739.34;;;9.49;100.00
51287;BME280;37364;46.974;18.916;2024-02-21T09:47:37;152718.59;;;9.41;100.00
51287;BME280;37364;46.974;18.916;2024-02-21T09:50:10;152756.16;;;9.56;100.00
51287;BME280;37364;46.974;18.916;2024-02-21T09:52:42;152691.47;;;9.30;100.00
51287;BME280;37364;46.974;18.916;2024-02-21T09:55:15;152807.94;;;9.76;100.00
51287;BME280;37364;46.974;18.916;2024-02-21T09:57:47;152789.78;;;9.69;100.00
51287;BME280;37364;46.974;18.916;2024-02-21T10:00:26;152818.28;;;9.80;100.00
51287;BME280;37364;46.974;18.916;2024-02-21T10:02:58;152760.03;;;9.57;100.00
51287;BME280;37364;46.974;18.916;2024-02-21T10:05:28;152841.53;;;9.89;100.00
51287;BME280;37364;46.974;18.916;2024-02-21T10:08:01;152873.91;;;10.02;100.00
51287;BME280;37364;46.974;18.916;2024-02-21T10:10:44;152854.50;;;9.95;100.00
51287;BME280;37364;46.974;18.916;2024-02-21T10:13:25;152877.81;;;10.04;100.00
51287;BME280;37364;46.974;18.916;2024-02-21T10:16:07;152890.72;;;10.09;100.00
51287;BME280;37364;46.974;18.916;2024-02-21T10:18:37;152807.94;;;9.76;100.00
51287;BME280;37364;46.974;18.916;2024-02-21T10:21:11;152882.97;;;10.06;100.00
51287;BME280;37364;46.974;18.916;2024-02-21T10:23:42;152950.31;;;10.33;100.00
51287;BME280;37364;46.974;18.916;2024-02-21T10:26:12;152837.69;;;9.88;100.00
51287;BME280;37364;46.974;18.916;2024-02-21T10:28:46;152840.25;;;9.89;100.00
51287;BME280;37364;46.974;18.916;2024-02-21T10:31:27;152831.19;;;9.85;100.00
51287;BME280;37364;46.974;18.916;2024-02-21T10:34:00;152850.59;;;9.93;100.00
51287;BME280;37364;46.974;18.916;2024-02-21T10:36:33;152911.41;;;10.17;100.00
51287;BME280;37364;46.974;18.916;2024-02-21T10:39:04;152919.19;;;10.20;100.00
51287;BME280;37364;46.974;18.916;2024-02-21T10:41:38;152851.88;;;9.94;100.00
51287;BME280;37364;46.974;18.916;2024-02-21T10:44:10;152938.63;;;10.28;100.00
51287;BME280;37364;46.974;18.916;2024-02-21T10:46:45;152993.03;;;10.49;100.00
51287;BME280;37364;46.974;18.916;2024-02-21T10:49:23;152857.06;;;9.96;100.00
51287;BME280;37364;46.974;18.916;2024-02-21T10:52:08;152985.25;;;10.46;100.00
51287;BME280;37364;46.974;18.916;2024-02-21T10:54:53;152960.66;;;10.37;100.00
51287;BME280;37364;46.974;18.916;2024-02-21T10:57:26;153106.97;;;10.95;100.00
51287;BME280;37364;46.974;18.916;2024-02-21T10:59:58;153182.09;;;11.24;100.00
51287;BME280;37364;46.974;18.916;2024-02-21T11:02:33;152972.34;;;10.41;100.00
51287;BME280;37364;46.974;18.916;2024-02-21T11:05:07;152933.44;;;10.26;100.00
51287;BME280;37364;46.974;18.916;2024-02-21T11:07:38;152897.22;;;10.12;100.00
51287;BME280;37364;46.974;18.916;2024-02-21T11:10:20;152937.34;;;10.27;100.00
51287;BME280;37364;46.974;18.916;2024-02-21T11:12:53;152911.41;;;10.17;100.00
51287;BME280;37364;46.974;18.916;2024-02-21T11:15:26;152912.75;;;10.18;100.00
51287;BME280;37364;46.974;18.916;2024-02-21T11:18:04;153029.28;;;10.64;100.00
51287;BME280;37364;46.974;18.916;2024-02-21T11:20:35;153030.59;;;10.64;100.00
51287;BME280;37364;46.974;18.916;2024-02-21T11:23:07;153022.81;;;10.61;100.00
51287;BME280;37364;46.974;18.916;2024-02-21T11:25:39;153186.00;;;11.26;100.00
51287;BME280;37364;46.974;18.916;2024-02-21T11:28:11;153202.81;;;11.33;100.00
51287;BME280;37364;46.974;18.916;2024-02-21T11:30:43;153249.47;;;11.51;100.00
51287;BME280;37364;46.974;18.916;2024-02-21T11:33:17;153200.25;;;11.32;100.00
51287;BME280;37364;46.974;18.916;2024-02-21T11:35:47;153193.78;;;11.29;100.00
51287;BME280;37364;46.974;18.916;2024-02-21T11:38:18;153288.34;;;11.66;100.00
51287;BME280;37364;46.974;18.916;2024-02-21T11:40:50;153443.91;;;12.28;100.00
51287;BME280;37364;46.974;18.916;2024-02-21T11:43:23;153486.69;;;12.45;100.00
51287;BME280;37364;46.974;18.916;2024-02-21T11:45:59;153512.63;;;12.55;100.00
51287;BME280;37364;46.974;18.916;2024-02-21T11:48:34;153523.00;;;12.59;100.00
51287;BME280;37364;46.974;18.916;2024-02-21T11:51:08;153555.44;;;12.72;98.84
51287;BME280;37364;46.974;18.916;2024-02-21T11:53:41;153346.69;;;11.90;97.66
51287;BME280;37364;46.974;18.916;2024-02-21T11:56:27;153289.63;;;11.67;100.00
51287;BME280;37364;46.974;18.916;2024-02-21T11:59:00;153227.44;;;11.42;100.00
51287;BME280;37364;46.974;18.916;2024-02-21T12:01:31;153224.88;;;11.41;100.00
51287;BME280;37364;46.974;18.916;2024-02-21T12:04:08;153160.09;;;11.16;98.46
51287;BME280;37364;46.974;18.916;2024-02-21T12:06:39;153121.25;;;11.00;95.41
51287;BME280;37364;46.974;18.916;2024-02-21T12:09:14;153139.38;;;11.07;94.38
51287;BME280;37364;46.974;18.916;2024-02-21T12:11:45;153147.13;;;11.11;92.80
51287;BME280;37364;46.974;18.916;2024-02-21T12:14:17;153131.59;;;11.04;91.50
51287;BME280;37364;46.974;18.916;2024-02-21T12:16:47;153127.69;;;11.03;93.12
51287;BME280;37364;46.974;18.916;2024-02-21T12:19:21;153165.28;;;11.18;92.66
51287;BME280;37364;46.974;18.916;2024-02-21T12:21:59;153214.50;;;11.37;95.64
51287;BME280;37364;46.974;18.916;2024-02-21T12:24:35;153242.97;;;11.48;95.01
51287;BME280;37364;46.974;18.916;2024-02-21T12:27:06;153266.31;;;11.58;96.21
51287;BME280;37364;46.974;18.916;2024-02-21T12:29:38;153338.88;;;11.86;95.72
51287;BME280;37364;46.974;18.916;2024-02-21T12:32:11;153331.09;;;11.83;95.56
51287;BME280;37364;46.974;18.916;2024-02-21T12:34:47;153293.53;;;11.68;94.15
51287;BME280;37364;46.974;18.916;2024-02-21T12:37:22;153284.47;;;11.65;96.03
51287;BME280;37364;46.974;18.916;2024-02-21T12:39:56;153268.91;;;11.59;91.80
51287;BME280;37364;46.974;18.916;2024-02-21T12:42:38;153255.94;;;11.54;91.79
51287;BME280;37364;46.974;18.916;2024-02-21T12:45:09;153293.53;;;11.68;91.50
51287;BME280;37364;46.974;18.916;2024-02-21T12:47:40;153379.09;;;12.02;92.96
51287;BME280;37364;46.974;18.916;2024-02-21T12:50:14;153403.72;;;12.12;92.12
51287;BME280;37364;46.974;18.916;2024-02-21T12:52:47;153462.06;;;12.35;94.41
51287;BME280;37364;46.974;18.916;2024-02-21T12:55:18;153454.28;;;12.32;90.92
51287;BME280;37364;46.974;18.916;2024-02-21T12:57:49;153416.72;;;12.17;86.83
51287;BME280;37364;46.974;18.916;2024-02-21T13:00:22;153298.72;;;11.71;85.64
51287;BME280;37364;46.974;18.916;2024-02-21T13:02:56;153294.81;;;11.69;88.08
51287;BME280;37364;46.974;18.916;2024-02-21T13:05:29;153302.63;;;11.72;89.99
51287;BME280;37364;46.974;18.916;2024-02-21T13:08:00;153266.31;;;11.58;88.59